sensor_id;sensor_type;location;lat;lon;timestamp;temperature;humidity
6758;DHT22;3416;53.074;8.822;2023-04-01T00:00:25;11.10;99.90
6758;DHT22;3416;53.074;8.822;2023-04-01T00:02:52;11.10;99.90
6758;DHT22;3416;53.074;8.822;2023-04-01T00:05:19;11.10;99.90
6758;DHT22;3416;53.074;8.822;2023-04-01T00:07:48;11.10;99.90
6758;DHT22;3416;53.074;8.822;2023-04-01T00:10:15;11.10;99.90
6758;DHT22;3416;53.074;8.822;2023-04-01T00:12:42;11.10;99.90
6758;DHT22;3416;53.074;8.822;2023-04-01T00:15:10;11.20;99.90
6758;DHT22;3416;53.074;8.822;2023-04-01T00:17:38;11.10;99.90
6758;DHT22;3416;53.074;8.822;2023-04-01T00:20:06;11.10;99.90
6758;DHT22;3416;53.074;8.822;2023-04-01T00:22:35;11.10;99.90
6758;DHT22;3416;53.074;8.822;2023-04-01T00:25:04;11.10;99.90
6758;DHT22;3416;53.074;8.822;2023-04-01T00:27:31;11.10;99.90
6758;DHT22;3416;53.074;8.822;2023-04-01T00:29:58;11.10;99.90
6758;DHT22;3416;53.074;8.822;2023-04-01T00:32:24;11.10;99.90
6758;DHT22;3416;53.074;8.822;2023-04-01T00:34:52;11.00;99.90
6758;DHT22;3416;53.074;8.822;2023-04-01T00:37:19;11.00;99.90
6758;DHT22;3416;53.074;8.822;2023-04-01T00:39:46;11.00;99.90
6758;DHT22;3416;53.074;8.822;2023-04-01T00:42:15;11.00;99.90
6758;DHT22;3416;53.074;8.822;2023-04-01T00:44:42;11.00;99.90
6758;DHT22;3416;53.074;8.822;2023-04-01T00:47:09;11.00;99.90
6758;DHT22;3416;53.074;8.822;2023-04-01T00:49:38;11.00;99.90
6758;DHT22;3416;53.074;8.822;2023-04-01T00:52:07;11.00;99.90
6758;DHT22;3416;53.074;8.822;2023-04-01T00:54:36;11.00;99.90
6758;DHT22;3416;53.074;8.822;2023-04-01T00:57:06;11.10;99.90
6758;DHT22;3416;53.074;8.822;2023-04-01T00:59:39;11.00;99.90
6758;DHT22;3416;53.074;8.822;2023-04-01T01:02:11;11.10;99.90
6758;DHT22;3416;53.074;8.822;2023-04-01T01:04:38;11.10;99.90
6758;DHT22;3416;53.074;8.822;2023-04-01T01:07:13;11.10;99.90
6758;DHT22;3416;53.074;8.822;2023-04-01T01:09:51;11.20;99.90
6758;DHT22;3416;53.074;8.822;2023-04-01T01:12:25;11.10;99.90
6758;DHT22;3416;53.074;8.822;2023-04-01T01:15:02;11.10;99.90
6758;DHT22;3416;53.074;8.822;2023-04-01T01:17:38;11.10;99.90
6758;DHT22;3416;53.074;8.822;2023-04-01T01:20:29;11.10;99.90
6758;DHT22;3416;53.074;8.822;2023-04-01T01:26:36;11.10;99.90
6758;DHT22;3416;53.074;8.822;2023-04-01T01:29:16;11.20;99.90
6758;DHT22;3416;53.074;8.822;2023-04-01T01:31:52;11.10;99.90
6758;DHT22;3416;53.074;8.822;2023-04-01T01:34:27;11.20;99.90
6758;DHT22;3416;53.074;8.822;2023-04-01T01:37:01;11.10;99.90
6758;DHT22;3416;53.074;8.822;2023-04-01T01:39:31;11.10;99.90
6758;DHT22;3416;53.074;8.822;2023-04-01T01:42:02;11.10;99.90
6758;DHT22;3416;53.074;8.822;2023-04-01T01:44:30;11.10;99.90
6758;DHT22;3416;53.074;8.822;2023-04-01T01:46:58;11.10;99.90
6758;DHT22;3416;53.074;8.822;2023-04-01T01:49:27;11.10;99.90
6758;DHT22;3416;53.074;8.822;2023-04-01T01:51:56;11.10;99.90
6758;DHT22;3416;53.074;8.822;2023-04-01T01:54:24;11.10;99.90
6758;DHT22;3416;53.074;8.822;2023-04-01T01:56:55;11.10;99.90
6758;DHT22;3416;53.074;8.822;2023-04-01T01:59:24;11.10;99.90
6758;DHT22;3416;53.074;8.822;2023-04-01T02:01:55;11.10;99.90
6758;DHT22;3416;53.074;8.822;2023-04-01T02:04:23;11.10;99.90
6758;DHT22;3416;53.074;8.822;2023-04-01T02:06:53;11.10;99.90
6758;DHT22;3416;53.074;8.822;2023-04-01T02:09:20;11.00;99.90
6758;DHT22;3416;53.074;8.822;2023-04-01T02:11:51;11.10;99.90
6758;DHT22;3416;53.074;8.822;2023-04-01T02:14:21;11.00;99.90
6758;DHT22;3416;53.074;8.822;2023-04-01T02:16:53;11.10;99.90
6758;DHT22;3416;53.074;8.822;2023-04-01T02:19:22;11.10;99.90
6758;DHT22;3416;53.074;8.822;2023-04-01T02:21:53;11.10;99.90
6758;DHT22;3416;53.074;8.822;2023-04-01T02:24:24;11.10;99.90
6758;DHT22;3416;53.074;8.822;2023-04-01T02:26:53;11.10;99.90
6758;DHT22;3416;53.074;8.822;2023-04-01T02:29:22;11.10;99.90
6758;DHT22;3416;53.074;8.822;2023-04-01T02:31:51;11.10;99.90
6758;DHT22;3416;53.074;8.822;2023-04-01T02:34:18;11.10;99.90
6758;DHT22;3416;53.074;8.822;2023-04-01T02:36:46;11.10;99.90
6758;DHT22;3416;53.074;8.822;2023-04-01T02:39:14;11.10;99.90
6758;DHT22;3416;53.074;8.822;2023-04-01T02:41:41;11.10;99.90
6758;DHT22;3416;53.074;8.822;2023-04-01T02:44:10;11.10;99.90
6758;DHT22;3416;53.074;8.822;2023-04-01T02:46:37;11.10;99.90
6758;DHT22;3416;53.074;8.822;2023-04-01T02:49:05;11.00;99.90
6758;DHT22;3416;53.074;8.822;2023-04-01T02:51:32;11.10;99.90
6758;DHT22;3416;53.074;8.822;2023-04-01T02:53:59;11.00;99.90
6758;DHT22;3416;53.074;8.822;2023-04-01T02:56:25;11.10;99.90
6758;DHT22;3416;53.074;8.822;2023-04-01T02:58:52;11.00;99.90
6758;DHT22;3416;53.074;8.822;2023-04-01T03:01:21;11.00;99.90
6758;DHT22;3416;53.074;8.822;2023-04-01T03:03:48;11.00;99.90
6758;DHT22;3416;53.074;8.822;2023-04-01T03:06:16;11.00;99.90
6758;DHT22;3416;53.074;8.822;2023-04-01T03:08:43;11.00;99.90
6758;DHT22;3416;53.074;8.822;2023-04-01T03:11:11;11.00;99.90
6758;DHT22;3416;53.074;8.822;2023-04-01T03:13:38;11.00;99.90
6758;DHT22;3416;53.074;8.822;2023-04-01T03:16:05;11.00;99.90
6758;DHT22;3416;53.074;8.822;2023-04-01T03:18:34;11.00;99.90
6758;DHT22;3416;53.074;8.822;2023-04-01T03:21:13;11.00;99.90
6758;DHT22;3416;53.074;8.822;2023-04-01T03:23:40;11.00;99.90
6758;DHT22;3416;53.074;8.822;2023-04-01T03:26:07;11.00;99.90
6758;DHT22;3416;53.074;8.822;2023-04-01T03:28:34;11.00;99.90
6758;DHT22;3416;53.074;8.822;2023-04-01T03:31:01;10.90;99.90
6758;DHT22;3416;53.074;8.822;2023-04-01T03:33:27;11.00;99.90
6758;DHT22;3416;53.074;8.822;2023-04-01T03:35:56;11.00;99.90
6758;DHT22;3416;53.074;8.822;2023-04-01T03:38:22;10.90;99.90
6758;DHT22;3416;53.074;8.822;2023-04-01T03:40:49;11.00;99.90
6758;DHT22;3416;53.074;8.822;2023-04-01T03:43:16;10.90;99.90
6758;DHT22;3416;53.074;8.822;2023-04-01T03:45:44;10.90;99.90
6758;DHT22;3416;53.074;8.822;2023-04-01T03:48:11;10.80;99.90
6758;DHT22;3416;53.074;8.822;2023-04-01T03:50:37;10.80;99.90
6758;DHT22;3416;53.074;8.822;2023-04-01T03:53:06;10.80;99.90
6758;DHT22;3416;53.074;8.822;2023-04-01T03:55:32;10.80;99.90
6758;DHT22;3416;53.074;8.822;2023-04-01T03:58:00;10.80;99.90
6758;DHT22;3416;53.074;8.822;2023-04-01T04:00:28;10.80;99.90
6758;DHT22;3416;53.074;8.822;2023-04-01T04:02:55;10.80;99.90
6758;DHT22;3416;53.074;8.822;2023-04-01T04:05:22;10.90;99.90
6758;DHT22;3416;53.074;8.822;2023-04-01T04:07:49;10.90;99.90
6758;DHT22;3416;53.074;8.822;2023-04-01T04:10:18;10.90;99.90
6758;DHT22;3416;53.074;8.822;2023-04-01T04:12:45;10.90;99.90
6758;DHT22;3416;53.074;8.822;2023-04-01T04:15:12;10.90;99.90
6758;DHT22;3416;53.074;8.822;2023-04-01T04:17:39;10.90;99.90
6758;DHT22;3416;53.074;8.822;2023-04-01T04:20:06;10.90;99.90
6758;DHT22;3416;53.074;8.822;2023-04-01T04:22:34;10.80;99.90
6758;DHT22;3416;53.074;8.822;2023-04-01T04:25:01;11.00;99.90
6758;DHT22;3416;53.074;8.822;2023-04-01T04:27:29;10.80;99.90
6758;DHT22;3416;53.074;8.822;2023-04-01T04:29:56;10.80;99.90
6758;DHT22;3416;53.074;8.822;2023-04-01T04:32:23;10.80;99.90
6758;DHT22;3416;53.074;8.822;2023-04-01T04:34:50;10.70;99.90
6758;DHT22;3416;53.074;8.822;2023-04-01T04:37:17;10.80;99.90
6758;DHT22;3416;53.074;8.822;2023-04-01T04:39:43;10.80;99.90
6758;DHT22;3416;53.074;8.822;2023-04-01T04:42:10;10.80;99.90
6758;DHT22;3416;53.074;8.822;2023-04-01T04:44:39;10.70;99.90
6758;DHT22;3416;53.074;8.822;2023-04-01T04:47:05;10.70;99.90
6758;DHT22;3416;53.074;8.822;2023-04-01T04:49:32;10.90;99.90
6758;DHT22;3416;53.074;8.822;2023-04-01T04:51:59;10.80;99.90
6758;DHT22;3416;53.074;8.822;2023-04-01T04:54:26;10.80;99.90
6758;DHT22;3416;53.074;8.822;2023-04-01T04:56:53;10.90;99.90
6758;DHT22;3416;53.074;8.822;2023-04-01T04:59:19;10.90;99.90
6758;DHT22;3416;53.074;8.822;2023-04-01T05:01:48;11.00;99.90
6758;DHT22;3416;53.074;8.822;2023-04-01T05:04:15;10.90;99.90
6758;DHT22;3416;53.074;8.822;2023-04-01T05:06:43;11.00;99.90
6758;DHT22;3416;53.074;8.822;2023-04-01T05:09:10;10.90;99.90
6758;DHT22;3416;53.074;8.822;2023-04-01T05:11:37;11.00;99.90
6758;DHT22;3416;53.074;8.822;2023-04-01T05:14:03;11.00;99.90
6758;DHT22;3416;53.074;8.822;2023-04-01T05:16:30;11.00;99.90
6758;DHT22;3416;53.074;8.822;2023-04-01T05:18:59;11.00;99.90
6758;DHT22;3416;53.074;8.822;2023-04-01T05:21:26;11.10;99.90
6758;DHT22;3416;53.074;8.822;2023-04-01T05:23:52;11.10;99.90
6758;DHT22;3416;53.074;8.822;2023-04-01T05:26:19;11.10;99.90
6758;DHT22;3416;53.074;8.822;2023-04-01T05:28:46;11.00;99.90
6758;DHT22;3416;53.074;8.822;2023-04-01T05:31:13;11.10;99.90
6758;DHT22;3416;53.074;8.822;2023-04-01T05:33:40;11.10;99.90
6758;DHT22;3416;53.074;8.822;2023-04-01T05:36:10;11.10;99.90
6758;DHT22;3416;53.074;8.822;2023-04-01T05:38:37;11.10;99.90
6758;DHT22;3416;53.074;8.822;2023-04-01T05:41:04;11.10;99.90
6758;DHT22;3416;53.074;8.822;2023-04-01T05:43:31;11.10;99.90
6758;DHT22;3416;53.074;8.822;2023-04-01T05:45:58;11.20;99.90
6758;DHT22;3416;53.074;8.822;2023-04-01T05:48:25;11.10;99.90
6758;DHT22;3416;53.074;8.822;2023-04-01T05:50:51;11.10;99.90
6758;DHT22;3416;53.074;8.822;2023-04-01T05:53:20;11.20;99.90
6758;DHT22;3416;53.074;8.822;2023-04-01T05:55:47;11.20;99.90
6758;DHT22;3416;53.074;8.822;2023-04-01T05:58:14;11.20;99.90
6758;DHT22;3416;53.074;8.822;2023-04-01T06:00:41;11.30;99.90
6758;DHT22;3416;53.074;8.822;2023-04-01T06:03:08;11.20;99.90
6758;DHT22;3416;53.074;8.822;2023-04-01T06:05:39;11.20;99.90
6758;DHT22;3416;53.074;8.822;2023-04-01T06:08:10;11.20;99.90
6758;DHT22;3416;53.074;8.822;2023-04-01T06:10:48;11.20;99.90
6758;DHT22;3416;53.074;8.822;2023-04-01T06:13:25;11.10;99.90
6758;DHT22;3416;53.074;8.822;2023-04-01T06:15:59;11.20;99.90
6758;DHT22;3416;53.074;8.822;2023-04-01T06:18:58;11.20;99.90
6758;DHT22;3416;53.074;8.822;2023-04-01T06:24:42;11.20;99.90
6758;DHT22;3416;53.074;8.822;2023-04-01T06:27:22;11.20;99.90
6758;DHT22;3416;53.074;8.822;2023-04-01T06:29:57;11.10;99.90
6758;DHT22;3416;53.074;8.822;2023-04-01T06:32:45;11.20;99.90
6758;DHT22;3416;53.074;8.822;2023-04-01T06:35:31;11.20;99.90
6758;DHT22;3416;53.074;8.822;2023-04-01T06:38:35;11.20;99.90
6758;DHT22;3416;53.074;8.822;2023-04-01T06:41:38;11.20;99.90
6758;DHT22;3416;53.074;8.822;2023-04-01T06:44:16;11.10;99.90
6758;DHT22;3416;53.074;8.822;2023-04-01T06:46:47;11.10;99.90
6758;DHT22;3416;53.074;8.822;2023-04-01T06:49:39;11.10;99.90
6758;DHT22;3416;53.074;8.822;2023-04-01T06:52:15;11.20;99.90
6758;DHT22;3416;53.074;8.822;2023-04-01T06:54:45;11.30;99.90
6758;DHT22;3416;53.074;8.822;2023-04-01T06:57:20;11.30;99.90
6758;DHT22;3416;53.074;8.822;2023-04-01T06:59:52;11.40;99.90
6758;DHT22;3416;53.074;8.822;2023-04-01T07:02:28;11.40;99.90
6758;DHT22;3416;53.074;8.822;2023-04-01T07:04:58;11.50;99.90
6758;DHT22;3416;53.074;8.822;2023-04-01T07:07:33;11.50;99.90
6758;DHT22;3416;53.074;8.822;2023-04-01T07:10:05;11.50;99.90
6758;DHT22;3416;53.074;8.822;2023-04-01T07:12:40;11.50;99.90
6758;DHT22;3416;53.074;8.822;2023-04-01T07:15:18;11.60;99.90
6758;DHT22;3416;53.074;8.822;2023-04-01T07:17:48;11.60;99.90
6758;DHT22;3416;53.074;8.822;2023-04-01T07:20:22;11.60;99.90
6758;DHT22;3416;53.074;8.822;2023-04-01T07:22:50;11.70;99.90
6758;DHT22;3416;53.074;8.822;2023-04-01T07:25:21;11.80;99.90
6758;DHT22;3416;53.074;8.822;2023-04-01T07:27:52;11.80;99.90
6758;DHT22;3416;53.074;8.822;2023-04-01T07:30:23;11.70;99.90
6758;DHT22;3416;53.074;8.822;2023-04-01T07:32:56;11.80;99.90
6758;DHT22;3416;53.074;8.822;2023-04-01T07:35:27;11.80;99.90
6758;DHT22;3416;53.074;8.822;2023-04-01T07:38:10;11.90;99.90
6758;DHT22;3416;53.074;8.822;2023-04-01T07:40:45;11.80;99.90
6758;DHT22;3416;53.074;8.822;2023-04-01T07:43:40;11.80;99.90
6758;DHT22;3416;53.074;8.822;2023-04-01T07:46:17;11.80;99.90
6758;DHT22;3416;53.074;8.822;2023-04-01T07:48:55;11.80;99.90
6758;DHT22;3416;53.074;8.822;2023-04-01T07:51:27;11.70;99.90
6758;DHT22;3416;53.074;8.822;2023-04-01T07:54:01;11.70;99.90
6758;DHT22;3416;53.074;8.822;2023-04-01T07:56:32;11.70;99.90
6758;DHT22;3416;53.074;8.822;2023-04-01T07:59:05;11.70;99.90
6758;DHT22;3416;53.074;8.822;2023-04-01T08:01:40;11.80;99.90
6758;DHT22;3416;53.074;8.822;2023-04-01T08:04:24;11.90;99.90
6758;DHT22;3416;53.074;8.822;2023-04-01T08:06:56;12.00;99.90
6758;DHT22;3416;53.074;8.822;2023-04-01T08:09:36;12.10;99.90
6758;DHT22;3416;53.074;8.822;2023-04-01T08:12:17;12.00;99.90
6758;DHT22;3416;53.074;8.822;2023-04-01T08:14:59;12.00;99.90
6758;DHT22;3416;53.074;8.822;2023-04-01T08:17:38;12.10;99.90
6758;DHT22;3416;53.074;8.822;2023-04-01T08:20:23;12.20;99.90
6758;DHT22;3416;53.074;8.822;2023-04-01T08:22:59;12.30;99.90
6758;DHT22;3416;53.074;8.822;2023-04-01T08:25:28;12.30;99.90
6758;DHT22;3416;53.074;8.822;2023-04-01T08:27:59;12.40;99.90
6758;DHT22;3416;53.074;8.822;2023-04-01T08:30:35;12.50;99.90
6758;DHT22;3416;53.074;8.822;2023-04-01T08:33:12;12.50;99.90
6758;DHT22;3416;53.074;8.822;2023-04-01T08:35:45;12.60;99.90
6758;DHT22;3416;53.074;8.822;2023-04-01T08:38:17;12.70;99.90
6758;DHT22;3416;53.074;8.822;2023-04-01T08:40:57;12.70;99.90
6758;DHT22;3416;53.074;8.822;2023-04-01T08:43:54;12.70;99.90
6758;DHT22;3416;53.074;8.822;2023-04-01T08:46:41;12.80;99.90
6758;DHT22;3416;53.074;8.822;2023-04-01T08:52:23;12.90;99.90
6758;DHT22;3416;53.074;8.822;2023-04-01T08:57:53;12.90;99.90
6758;DHT22;3416;53.074;8.822;2023-04-01T09:00:29;12.90;99.90
6758;DHT22;3416;53.074;8.822;2023-04-01T09:03:13;13.00;99.90
6758;DHT22;3416;53.074;8.822;2023-04-01T09:09:21;12.80;99.90
6758;DHT22;3416;53.074;8.822;2023-04-01T09:12:24;12.90;99.90
6758;DHT22;3416;53.074;8.822;2023-04-01T09:18:12;12.80;99.90
6758;DHT22;3416;53.074;8.822;2023-04-01T09:20:52;12.80;99.90
6758;DHT22;3416;53.074;8.822;2023-04-01T09:23:52;13.00;99.90
6758;DHT22;3416;53.074;8.822;2023-04-01T09:26:31;13.10;99.90
6758;DHT22;3416;53.074;8.822;2023-04-01T09:29:11;13.40;99.90
6758;DHT22;3416;53.074;8.822;2023-04-01T09:31:58;13.80;99.90
6758;DHT22;3416;53.074;8.822;2023-04-01T09:37:21;14.30;99.90
6758;DHT22;3416;53.074;8.822;2023-04-01T09:40:08;14.50;99.90
6758;DHT22;3416;53.074;8.822;2023-04-01T09:42:43;14.60;99.90
6758;DHT22;3416;53.074;8.822;2023-04-01T09:45:21;14.70;99.90
6758;DHT22;3416;53.074;8.822;2023-04-01T09:47:59;14.80;99.90
6758;DHT22;3416;53.074;8.822;2023-04-01T09:50:34;15.10;99.90
6758;DHT22;3416;53.074;8.822;2023-04-01T09:53:12;15.00;99.90
6758;DHT22;3416;53.074;8.822;2023-04-01T09:59:16;14.90;99.90
6758;DHT22;3416;53.074;8.822;2023-04-01T10:02:08;15.10;99.90
6758;DHT22;3416;53.074;8.822;2023-04-01T10:05:04;15.00;99.90
6758;DHT22;3416;53.074;8.822;2023-04-01T10:08:04;15.00;99.90
6758;DHT22;3416;53.074;8.822;2023-04-01T10:10:58;15.00;99.90
6758;DHT22;3416;53.074;8.822;2023-04-01T10:17:00;14.50;99.90
6758;DHT22;3416;53.074;8.822;2023-04-01T10:19:55;14.40;99.90
6758;DHT22;3416;53.074;8.822;2023-04-01T10:22:41;14.10;99.90
6758;DHT22;3416;53.074;8.822;2023-04-01T10:25:34;13.40;99.90
6758;DHT22;3416;53.074;8.822;2023-04-01T10:28:53;12.80;99.90
6758;DHT22;3416;53.074;8.822;2023-04-01T10:31:58;12.30;99.90
6758;DHT22;3416;53.074;8.822;2023-04-01T10:37:40;11.70;99.90
6758;DHT22;3416;53.074;8.822;2023-04-01T10:43:37;11.30;99.90
6758;DHT22;3416;53.074;8.822;2023-04-01T10:49:32;11.00;99.90
6758;DHT22;3416;53.074;8.822;2023-04-01T10:56:01;10.80;99.90
6758;DHT22;3416;53.074;8.822;2023-04-01T11:05:26;11.10;99.90
6758;DHT22;3416;53.074;8.822;2023-04-01T11:11:36;11.40;99.90
6758;DHT22;3416;53.074;8.822;2023-04-01T11:14:37;11.40;99.90
6758;DHT22;3416;53.074;8.822;2023-04-01T11:20:53;11.70;99.90
6758;DHT22;3416;53.074;8.822;2023-04-01T11:23:42;11.60;99.90
6758;DHT22;3416;53.074;8.822;2023-04-01T11:26:26;11.40;99.90
6758;DHT22;3416;53.074;8.822;2023-04-01T11:29:07;11.20;99.90
6758;DHT22;3416;53.074;8.822;2023-04-01T11:31:43;11.00;99.90
6758;DHT22;3416;53.074;8.822;2023-04-01T11:34:26;10.90;99.90
6758;DHT22;3416;53.074;8.822;2023-04-01T11:37:05;10.80;99.90
6758;DHT22;3416;53.074;8.822;2023-04-01T11:39:41;10.80;99.90
6758;DHT22;3416;53.074;8.822;2023-04-01T11:42:17;10.70;99.90
6758;DHT22;3416;53.074;8.822;2023-04-01T11:44:53;10.70;99.90
6758;DHT22;3416;53.074;8.822;2023-04-01T11:47:40;10.60;99.90
6758;DHT22;3416;53.074;8.822;2023-04-01T11:50:18;10.50;99.90
6758;DHT22;3416;53.074;8.822;2023-04-01T11:56:00;10.30;99.90
6758;DHT22;3416;53.074;8.822;2023-04-01T11:58:52;10.10;99.90
6758;DHT22;3416;53.074;8.822;2023-04-01T12:01:29;10.10;99.90
6758;DHT22;3416;53.074;8.822;2023-04-01T12:04:35;10.10;99.90
6758;DHT22;3416;53.074;8.822;2023-04-01T12:07:15;10.20;99.90
6758;DHT22;3416;53.074;8.822;2023-04-01T12:09:52;10.30;99.90
6758;DHT22;3416;53.074;8.822;2023-04-01T12:12:32;10.50;99.90
6758;DHT22;3416;53.074;8.822;2023-04-01T12:15:13;10.60;99.90
6758;DHT22;3416;53.074;8.822;2023-04-01T12:17:49;10.70;99.90
6758;DHT22;3416;53.074;8.822;2023-04-01T12:20:30;10.70;99.90
6758;DHT22;3416;53.074;8.822;2023-04-01T12:23:10;10.60;99.90
6758;DHT22;3416;53.074;8.822;2023-04-01T12:26:05;10.60;99.90
6758;DHT22;3416;53.074;8.822;2023-04-01T12:28:44;10.70;99.90
6758;DHT22;3416;53.074;8.822;2023-04-01T12:31:31;10.60;99.90
6758;DHT22;3416;53.074;8.822;2023-04-01T12:34:31;10.50;99.90
6758;DHT22;3416;53.074;8.822;2023-04-01T12:37:10;10.40;99.90
6758;DHT22;3416;53.074;8.822;2023-04-01T12:39:51;10.40;99.90
6758;DHT22;3416;53.074;8.822;2023-04-01T12:45:29;10.40;99.90
6758;DHT22;3416;53.074;8.822;2023-04-01T12:48:20;10.50;99.90
6758;DHT22;3416;53.074;8.822;2023-04-01T12:54:10;10.40;99.90
6758;DHT22;3416;53.074;8.822;2023-04-01T12:57:08;10.40;99.90
6758;DHT22;3416;53.074;8.822;2023-04-01T13:00:03;10.30;99.90
6758;DHT22;3416;53.074;8.822;2023-04-01T13:02:49;10.20;99.90
6758;DHT22;3416;53.074;8.822;2023-04-01T13:06:00;10.20;99.90
6758;DHT22;3416;53.074;8.822;2023-04-01T13:08:42;10.30;99.90
6758;DHT22;3416;53.074;8.822;2023-04-01T13:11:16;10.20;99.90
6758;DHT22;3416;53.074;8.822;2023-04-01T13:16:56;10.30;99.90
6758;DHT22;3416;53.074;8.822;2023-04-01T13:19:29;10.40;99.90
6758;DHT22;3416;53.074;8.822;2023-04-01T13:22:03;10.30;99.90
6758;DHT22;3416;53.074;8.822;2023-04-01T13:24:44;10.30;99.90
6758;DHT22;3416;53.074;8.822;2023-04-01T13:27:18;10.40;99.90
6758;DHT22;3416;53.074;8.822;2023-04-01T13:30:00;10.30;99.90
6758;DHT22;3416;53.074;8.822;2023-04-01T13:32:36;10.20;99.90
6758;DHT22;3416;53.074;8.822;2023-04-01T13:35:20;10.20;99.90
6758;DHT22;3416;53.074;8.822;2023-04-01T13:38:06;10.10;99.90
6758;DHT22;3416;53.074;8.822;2023-04-01T13:40:48;10.10;99.90
6758;DHT22;3416;53.074;8.822;2023-04-01T13:43:21;10.10;99.90
6758;DHT22;3416;53.074;8.822;2023-04-01T13:46:39;10.10;99.90
6758;DHT22;3416;53.074;8.822;2023-04-01T13:49:46;10.00;99.90
6758;DHT22;3416;53.074;8.822;2023-04-01T13:52:39;10.00;99.90
6758;DHT22;3416;53.074;8.822;2023-04-01T13:55:35;10.00;99.90
6758;DHT22;3416;53.074;8.822;2023-04-01T13:59:01;10.00;99.90
6758;DHT22;3416;53.074;8.822;2023-04-01T14:01:48;9.80;99.90
6758;DHT22;3416;53.074;8.822;2023-04-01T14:04:49;9.60;99.90
6758;DHT22;3416;53.074;8.822;2023-04-01T14:07:26;9.40;99.90
6758;DHT22;3416;53.074;8.822;2023-04-01T14:10:16;9.50;99.90
6758;DHT22;3416;53.074;8.822;2023-04-01T14:13:05;9.50;99.90
6758;DHT22;3416;53.074;8.822;2023-04-01T14:15:59;9.50;99.90
6758;DHT22;3416;53.074;8.822;2023-04-01T14:25:33;9.20;99.90
6758;DHT22;3416;53.074;8.822;2023-04-01T14:28:14;9.20;99.90
6758;DHT22;3416;53.074;8.822;2023-04-01T14:30:59;9.10;99.90
6758;DHT22;3416;53.074;8.822;2023-04-01T14:33:38;9.20;99.90
6758;DHT22;3416;53.074;8.822;2023-04-01T14:36:29;9.10;99.90
6758;DHT22;3416;53.074;8.822;2023-04-01T14:42:03;9.10;99.90
6758;DHT22;3416;53.074;8.822;2023-04-01T14:47:48;9.00;99.90
6758;DHT22;3416;53.074;8.822;2023-04-01T14:50:21;9.00;99.90
6758;DHT22;3416;53.074;8.822;2023-04-01T14:52:57;9.00;99.90
6758;DHT22;3416;53.074;8.822;2023-04-01T14:55:31;9.00;99.90
6758;DHT22;3416;53.074;8.822;2023-04-01T14:58:08;9.00;99.90
6758;DHT22;3416;53.074;8.822;2023-04-01T15:00:59;9.00;99.90
6758;DHT22;3416;53.074;8.822;2023-04-01T15:03:30;9.00;99.90
6758;DHT22;3416;53.074;8.822;2023-04-01T15:06:20;8.80;99.90
6758;DHT22;3416;53.074;8.822;2023-04-01T15:08:58;8.80;99.90
6758;DHT22;3416;53.074;8.822;2023-04-01T15:11:37;8.70;99.90
6758;DHT22;3416;53.074;8.822;2023-04-01T15:14:21;8.60;99.90
6758;DHT22;3416;53.074;8.822;2023-04-01T15:17:02;8.60;99.90
6758;DHT22;3416;53.074;8.822;2023-04-01T15:19:46;8.60;99.90
6758;DHT22;3416;53.074;8.822;2023-04-01T15:22:32;8.60;99.90
6758;DHT22;3416;53.074;8.822;2023-04-01T15:25:23;8.60;99.90
6758;DHT22;3416;53.074;8.822;2023-04-01T15:27:59;8.70;99.90
6758;DHT22;3416;53.074;8.822;2023-04-01T15:30:38;8.80;99.90
6758;DHT22;3416;53.074;8.822;2023-04-01T15:33:29;8.80;99.90
6758;DHT22;3416;53.074;8.822;2023-04-01T15:36:04;8.70;99.90
6758;DHT22;3416;53.074;8.822;2023-04-01T15:38:39;8.60;99.90
6758;DHT22;3416;53.074;8.822;2023-04-01T15:41:14;8.50;99.90
6758;DHT22;3416;53.074;8.822;2023-04-01T15:43:43;8.40;99.90
6758;DHT22;3416;53.074;8.822;2023-04-01T15:46:43;8.40;99.90
6758;DHT22;3416;53.074;8.822;2023-04-01T15:49:28;8.30;99.90
6758;DHT22;3416;53.074;8.822;2023-04-01T15:52:06;8.30;99.90
6758;DHT22;3416;53.074;8.822;2023-04-01T15:54:55;8.40;99.90
6758;DHT22;3416;53.074;8.822;2023-04-01T15:57:32;8.50;99.90
6758;DHT22;3416;53.074;8.822;2023-04-01T16:03:19;8.40;99.90
6758;DHT22;3416;53.074;8.822;2023-04-01T16:09:02;8.40;99.90
6758;DHT22;3416;53.074;8.822;2023-04-01T16:11:40;8.30;99.90
6758;DHT22;3416;53.074;8.822;2023-04-01T16:14:18;8.20;99.90
6758;DHT22;3416;53.074;8.822;2023-04-01T16:16:57;8.20;99.90
6758;DHT22;3416;53.074;8.822;2023-04-01T16:19:47;8.10;99.90
6758;DHT22;3416;53.074;8.822;2023-04-01T16:22:20;8.10;99.90
6758;DHT22;3416;53.074;8.822;2023-04-01T16:24:53;8.00;99.90
6758;DHT22;3416;53.074;8.822;2023-04-01T16:27:29;8.00;99.90
6758;DHT22;3416;53.074;8.822;2023-04-01T16:30:03;8.00;99.90
6758;DHT22;3416;53.074;8.822;2023-04-01T16:32:50;8.00;99.90
6758;DHT22;3416;53.074;8.822;2023-04-01T16:35:33;7.90;99.90
6758;DHT22;3416;53.074;8.822;2023-04-01T16:38:11;8.00;99.90
6758;DHT22;3416;53.074;8.822;2023-04-01T16:40:49;7.80;99.90
6758;DHT22;3416;53.074;8.822;2023-04-01T16:43:25;7.80;99.90
6758;DHT22;3416;53.074;8.822;2023-04-01T16:46:13;7.80;99.90
6758;DHT22;3416;53.074;8.822;2023-04-01T16:48:52;7.80;99.90
6758;DHT22;3416;53.074;8.822;2023-04-01T16:51:30;7.80;99.90
6758;DHT22;3416;53.074;8.822;2023-04-01T16:54:04;7.70;99.90
6758;DHT22;3416;53.074;8.822;2023-04-01T16:56:39;7.60;99.90
6758;DHT22;3416;53.074;8.822;2023-04-01T16:59:15;7.50;99.90
6758;DHT22;3416;53.074;8.822;2023-04-01T17:01:52;7.40;99.90
6758;DHT22;3416;53.074;8.822;2023-04-01T17:04:28;7.40;99.90
6758;DHT22;3416;53.074;8.822;2023-04-01T17:07:07;7.40;99.90
6758;DHT22;3416;53.074;8.822;2023-04-01T17:09:51;7.50;99.90
6758;DHT22;3416;53.074;8.822;2023-04-01T17:12:32;7.60;99.90
6758;DHT22;3416;53.074;8.822;2023-04-01T17:15:10;7.60;99.90
6758;DHT22;3416;53.074;8.822;2023-04-01T17:17:47;7.50;99.90
6758;DHT22;3416;53.074;8.822;2023-04-01T17:20:40;7.50;99.90
6758;DHT22;3416;53.074;8.822;2023-04-01T17:23:18;7.50;99.90
6758;DHT22;3416;53.074;8.822;2023-04-01T17:28:49;7.40;99.90
6758;DHT22;3416;53.074;8.822;2023-04-01T17:31:37;7.30;99.90
6758;DHT22;3416;53.074;8.822;2023-04-01T17:34:35;7.40;99.90
6758;DHT22;3416;53.074;8.822;2023-04-01T17:37:14;7.40;99.90
6758;DHT22;3416;53.074;8.822;2023-04-01T17:40:00;7.50;99.90
6758;DHT22;3416;53.074;8.822;2023-04-01T17:42:39;7.50;99.90
6758;DHT22;3416;53.074;8.822;2023-04-01T17:45:11;7.50;99.90
6758;DHT22;3416;53.074;8.822;2023-04-01T17:47:55;7.50;99.90
6758;DHT22;3416;53.074;8.822;2023-04-01T17:50:30;7.40;99.90
6758;DHT22;3416;53.074;8.822;2023-04-01T17:53:18;7.40;99.90
6758;DHT22;3416;53.074;8.822;2023-04-01T17:55:59;7.40;99.90
6758;DHT22;3416;53.074;8.822;2023-04-01T17:58:31;7.50;99.90
6758;DHT22;3416;53.074;8.822;2023-04-01T18:07:44;7.30;99.90
6758;DHT22;3416;53.074;8.822;2023-04-01T18:10:25;7.30;99.90
6758;DHT22;3416;53.074;8.822;2023-04-01T18:13:18;7.40;99.90
6758;DHT22;3416;53.074;8.822;2023-04-01T18:16:08;7.20;99.90
6758;DHT22;3416;53.074;8.822;2023-04-01T18:18:46;7.20;99.90
6758;DHT22;3416;53.074;8.822;2023-04-01T18:21:23;7.10;99.90
6758;DHT22;3416;53.074;8.822;2023-04-01T18:23:56;7.00;99.90
6758;DHT22;3416;53.074;8.822;2023-04-01T18:26:30;7.00;99.90
6758;DHT22;3416;53.074;8.822;2023-04-01T18:29:04;7.10;99.90
6758;DHT22;3416;53.074;8.822;2023-04-01T18:31:41;7.10;99.90
6758;DHT22;3416;53.074;8.822;2023-04-01T18:34:14;7.00;99.90
6758;DHT22;3416;53.074;8.822;2023-04-01T18:36:47;7.00;99.90
6758;DHT22;3416;53.074;8.822;2023-04-01T18:39:19;7.00;99.90
6758;DHT22;3416;53.074;8.822;2023-04-01T18:42:01;7.00;99.90